createdAt,value
2023-05-12T00:01:07.992Z,10.60
2023-05-12T00:03:34.694Z,10.45
2023-05-12T00:06:03.679Z,10.37
2023-05-12T00:08:31.428Z,10.56
2023-05-12T00:10:58.015Z,10.40
2023-05-12T00:13:24.712Z,10.47
2023-05-12T00:15:51.933Z,10.62
2023-05-12T00:18:18.514Z,10.60
2023-05-12T00:20:45.069Z,10.45
2023-05-12T00:23:12.268Z,10.49
2023-05-12T00:25:38.873Z,10.28
2023-05-12T00:28:05.869Z,10.37
2023-05-12T00:30:32.399Z,10.42
2023-05-12T00:32:59.005Z,10.33
2023-05-12T00:35:25.708Z,10.20
2023-05-12T00:37:52.742Z,10.23
2023-05-12T00:40:19.720Z,10.22
2023-05-12T00:42:46.430Z,10.17
2023-05-12T00:45:13.119Z,10.16
2023-05-12T00:47:40.067Z,10.14
2023-05-12T00:50:08.426Z,10.07
2023-05-12T00:52:35.399Z,10.26
2023-05-12T00:55:03.615Z,10.32
2023-05-12T00:57:30.252Z,10.39
2023-05-12T00:59:56.845Z,10.26
2023-05-12T01:02:24.070Z,10.19
2023-05-12T01:04:51.600Z,10.10
2023-05-12T01:07:22.745Z,10.26
2023-05-12T01:09:54.402Z,10.15
2023-05-12T01:12:21.491Z,10.19
2023-05-12T01:14:48.403Z,10.34
2023-05-12T01:17:19.608Z,10.23
2023-05-12T01:19:50.498Z,10.16
2023-05-12T01:22:17.970Z,10.22
2023-05-12T01:24:54.400Z,10.26
2023-05-12T01:27:22.173Z,10.10
2023-05-12T01:29:49.915Z,10.16
2023-05-12T01:32:16.894Z,10.13
2023-05-12T01:34:43.707Z,10.07
2023-05-12T01:37:10.845Z,10.28
2023-05-12T01:39:37.958Z,10.23
2023-05-12T01:42:05.752Z,10.25
2023-05-12T01:44:32.442Z,10.21
2023-05-12T01:46:59.263Z,10.09
2023-05-12T01:49:25.797Z,10.22
2023-05-12T01:51:52.504Z,10.25
2023-05-12T01:54:19.367Z,10.24
2023-05-12T01:56:45.944Z,10.37
2023-05-12T01:59:12.519Z,10.21
2023-05-12T02:01:39.127Z,10.37
2023-05-12T02:04:08.037Z,10.20
2023-05-12T02:06:34.779Z,10.18
2023-05-12T02:09:01.426Z,10.08
2023-05-12T02:11:28.151Z,10.07
2023-05-12T02:13:54.682Z,9.98
2023-05-12T02:16:21.341Z,10.03
2023-05-12T02:18:48.179Z,9.96
2023-05-12T02:21:14.766Z,9.92
2023-05-12T02:23:41.393Z,9.97
2023-05-12T02:26:07.957Z,9.99
2023-05-12T02:28:34.524Z,9.95
2023-05-12T02:31:01.029Z,9.92
2023-05-12T02:33:27.595Z,10.03
2023-05-12T02:35:54.104Z,9.97
2023-05-12T02:38:20.686Z,10.07
2023-05-12T02:40:47.897Z,10.16
2023-05-12T02:43:14.415Z,10.01
2023-05-12T02:45:41.507Z,10.13
2023-05-12T02:48:08.302Z,10.09
2023-05-12T02:50:34.925Z,10.17
2023-05-12T02:53:02.268Z,9.96
2023-05-12T02:55:30.683Z,9.93
2023-05-12T02:57:57.550Z,10.13
2023-05-12T03:00:24.120Z,10.02
2023-05-12T03:02:51.069Z,10.00
2023-05-12T03:05:17.881Z,10.01
2023-05-12T03:07:44.565Z,10.00
2023-05-12T03:10:11.236Z,9.98
2023-05-12T03:12:37.838Z,9.93
2023-05-12T03:15:04.832Z,10.10
2023-05-12T03:17:32.025Z,10.02
2023-05-12T03:19:58.678Z,10.16
2023-05-12T03:22:25.265Z,9.99
2023-05-12T03:24:51.997Z,10.14
2023-05-12T03:27:18.831Z,10.24
2023-05-12T03:29:45.947Z,10.21
2023-05-12T03:32:12.990Z,10.17
2023-05-12T03:34:39.697Z,9.91
2023-05-12T03:37:06.242Z,10.05
2023-05-12T03:39:33.522Z,9.97
2023-05-12T03:42:00.198Z,10.04
2023-05-12T03:44:26.722Z,10.04
2023-05-12T03:46:53.337Z,9.89
2023-05-12T03:49:20.034Z,10.05
2023-05-12T03:51:46.606Z,10.02
2023-05-12T03:54:13.130Z,10.05
2023-05-12T03:56:39.678Z,10.04
2023-05-12T03:59:06.447Z,10.17
2023-05-12T04:01:33.089Z,10.16
2023-05-12T04:03:59.638Z,10.05
2023-05-12T04:06:26.147Z,10.13
2023-05-12T04:08:52.704Z,10.09
2023-05-12T04:11:19.236Z,10.12
2023-05-12T04:13:45.852Z,10.10
2023-05-12T04:16:12.469Z,10.04
2023-05-12T04:18:39.021Z,10.13
2023-05-12T04:21:06.192Z,10.12
2023-05-12T04:23:32.825Z,10.29
2023-05-12T04:25:59.341Z,10.21
2023-05-12T04:28:25.955Z,10.28
2023-05-12T04:30:52.478Z,10.29
2023-05-12T04:33:19.123Z,10.45
2023-05-12T04:35:45.645Z,10.27
2023-05-12T04:38:12.319Z,10.19
2023-05-12T04:40:38.901Z,10.20
2023-05-12T04:43:05.423Z,10.31
2023-05-12T04:45:32.320Z,10.24
2023-05-12T04:47:58.885Z,10.13
2023-05-12T04:50:25.416Z,10.11
2023-05-12T04:52:52.317Z,10.03
2023-05-12T04:55:19.103Z,10.09
2023-05-12T04:57:45.750Z,10.25
2023-05-12T05:00:12.824Z,10.05
2023-05-12T05:02:40.401Z,10.08
2023-05-12T05:05:07.513Z,10.19
2023-05-12T05:07:34.031Z,10.15
2023-05-12T05:10:01.166Z,10.17
2023-05-12T05:12:27.739Z,10.11
2023-05-12T05:14:54.298Z,10.14
2023-05-12T05:17:20.960Z,10.13
2023-05-12T05:19:57.271Z,10.01
2023-05-12T05:22:24.798Z,10.07
2023-05-12T05:24:52.048Z,9.98
2023-05-12T05:27:18.913Z,9.96
2023-05-12T05:29:45.787Z,10.03
2023-05-12T05:32:12.551Z,10.04
2023-05-12T05:34:39.254Z,9.94
2023-05-12T05:37:06.043Z,9.99
2023-05-12T05:39:32.551Z,10.01
2023-05-12T05:41:59.311Z,9.98
2023-05-12T05:44:25.828Z,10.10
2023-05-12T05:46:52.381Z,10.09
2023-05-12T05:49:19.166Z,10.08
2023-05-12T05:51:45.910Z,10.01
2023-05-12T05:54:12.890Z,10.07
2023-05-12T05:56:39.503Z,10.24
2023-05-12T05:59:06.390Z,10.04
2023-05-12T06:01:33.092Z,10.21
2023-05-12T06:04:00.015Z,10.20
2023-05-12T06:06:26.938Z,10.21
2023-05-12T06:08:56.003Z,10.20
2023-05-12T06:11:22.807Z,10.22
2023-05-12T06:13:49.843Z,10.26
2023-05-12T06:16:16.425Z,10.28
2023-05-12T06:18:43.447Z,10.33
2023-05-12T06:21:10.172Z,10.39
2023-05-12T06:23:36.689Z,10.47
2023-05-12T06:26:03.420Z,10.50
2023-05-12T06:28:30.192Z,10.78
2023-05-12T06:30:56.792Z,10.70
2023-05-12T06:33:23.379Z,10.64
2023-05-12T06:35:50.038Z,10.73
2023-05-12T06:38:16.561Z,10.59
2023-05-12T06:40:43.170Z,10.72
2023-05-12T06:43:09.887Z,10.86
2023-05-12T06:45:36.848Z,10.76
2023-05-12T06:48:06.033Z,10.69
2023-05-12T06:50:32.750Z,10.75
2023-05-12T06:52:59.279Z,10.69
2023-05-12T06:55:25.977Z,10.70
2023-05-12T06:57:55.778Z,10.70
2023-05-12T07:00:26.546Z,10.76
2023-05-12T07:02:53.317Z,10.55
2023-05-12T07:05:21.215Z,10.82
2023-05-12T07:07:48.068Z,10.70
2023-05-12T07:10:15.003Z,10.95
2023-05-12T07:12:41.592Z,11.15
2023-05-12T07:15:08.606Z,11.06
2023-05-12T07:17:35.311Z,11.02
2023-05-12T07:20:02.418Z,10.78
2023-05-12T07:22:29.659Z,10.81
2023-05-12T07:24:56.212Z,10.79
2023-05-12T07:27:22.764Z,10.86
2023-05-12T07:29:49.255Z,10.87
2023-05-12T07:32:16.060Z,10.84
2023-05-12T07:34:42.619Z,10.88
2023-05-12T07:37:09.177Z,10.93
2023-05-12T07:39:35.749Z,10.98
2023-05-12T07:42:02.350Z,10.87
2023-05-12T07:44:28.944Z,11.05
2023-05-12T07:46:55.510Z,10.99
2023-05-12T07:49:23.405Z,11.18
2023-05-12T07:51:50.342Z,11.24
2023-05-12T07:54:17.123Z,11.16
2023-05-12T07:56:43.776Z,11.39
2023-05-12T07:59:10.933Z,11.52
2023-05-12T08:01:37.535Z,11.61
2023-05-12T08:04:04.379Z,11.70
2023-05-12T08:06:31.189Z,11.64
2023-05-12T08:08:58.462Z,11.54
2023-05-12T08:11:26.153Z,11.40
2023-05-12T08:13:53.082Z,11.61
2023-05-12T08:16:19.776Z,11.42
2023-05-12T08:18:46.414Z,11.57
2023-05-12T08:21:12.997Z,11.47
2023-05-12T08:23:39.578Z,11.55
2023-05-12T08:26:06.268Z,11.96
2023-05-12T08:28:32.960Z,12.28
2023-05-12T08:31:00.920Z,11.76
2023-05-12T08:33:28.762Z,11.76
2023-05-12T08:35:55.387Z,11.57
2023-05-12T08:38:22.355Z,11.52
2023-05-12T08:41:17.867Z,11.82
2023-05-12T08:43:46.442Z,11.81
2023-05-12T08:46:13.504Z,12.02
2023-05-12T08:48:42.000Z,11.89
2023-05-12T08:51:13.841Z,11.97
2023-05-12T08:53:41.987Z,12.00
2023-05-12T08:58:42.820Z,12.24
2023-05-12T09:01:11.876Z,12.02
2023-05-12T09:03:39.096Z,12.11
2023-05-12T09:06:06.740Z,12.32
2023-05-12T09:08:35.085Z,12.04
2023-05-12T09:11:02.773Z,12.52
2023-05-12T09:14:04.303Z,12.30
2023-05-12T09:16:35.804Z,12.37
2023-05-12T09:19:04.589Z,12.54
2023-05-12T09:21:34.165Z,12.46
2023-05-12T09:24:09.173Z,12.84
2023-05-12T09:26:50.037Z,12.60
2023-05-12T09:29:27.777Z,12.76
2023-05-12T09:31:59.601Z,12.51
2023-05-12T09:34:31.028Z,12.33
2023-05-12T09:37:03.604Z,12.28
2023-05-12T09:39:30.160Z,12.36
2023-05-12T09:41:56.977Z,12.68
2023-05-12T09:44:24.940Z,12.70
2023-05-12T09:46:52.802Z,12.79
2023-05-12T09:49:20.452Z,12.96
2023-05-12T09:51:47.481Z,12.75
2023-05-12T09:54:24.655Z,12.98
2023-05-12T09:56:52.832Z,13.06
2023-05-12T09:59:21.298Z,12.97
2023-05-12T10:01:48.602Z,12.66
2023-05-12T10:04:15.631Z,12.48
2023-05-12T10:06:43.166Z,11.99
2023-05-12T10:09:20.656Z,12.16
2023-05-12T10:11:47.626Z,12.05
2023-05-12T10:14:14.467Z,12.03
2023-05-12T10:16:41.597Z,12.38
2023-05-12T10:19:10.510Z,12.07
2023-05-12T10:21:38.573Z,12.06
2023-05-12T10:24:05.515Z,12.06
2023-05-12T10:26:37.596Z,12.22
2023-05-12T10:29:04.222Z,12.41
2023-05-12T10:31:31.184Z,12.48
2023-05-12T10:34:02.691Z,12.49
2023-05-12T10:36:29.757Z,12.80
2023-05-12T10:39:04.319Z,12.69
2023-05-12T10:41:35.466Z,12.76
2023-05-12T10:44:02.108Z,12.67
2023-05-12T10:46:28.839Z,12.84
2023-05-12T10:49:00.694Z,12.86
2023-05-12T10:51:33.230Z,12.87
2023-05-12T10:54:05.305Z,12.78
2023-05-12T10:56:44.287Z,12.44
2023-05-12T10:59:23.036Z,12.51
2023-05-12T11:02:13.655Z,12.65
2023-05-12T11:04:58.280Z,12.79
2023-05-12T11:07:27.776Z,12.92
2023-05-12T11:09:58.906Z,13.00
2023-05-12T11:12:32.582Z,13.33
2023-05-12T11:15:01.420Z,13.57
2023-05-12T11:17:28.181Z,13.92
2023-05-12T11:19:55.908Z,14.19
2023-05-12T11:22:24.174Z,14.24
2023-05-12T11:24:52.837Z,14.52
2023-05-12T11:27:21.318Z,14.43
2023-05-12T11:30:01.812Z,14.55
2023-05-12T11:32:30.425Z,14.37
2023-05-12T11:35:18.545Z,14.38
2023-05-12T11:37:46.145Z,13.92
2023-05-12T11:40:22.547Z,14.00
2023-05-12T11:42:52.236Z,13.82
2023-05-12T11:45:27.299Z,13.96
2023-05-12T11:48:05.003Z,13.99
2023-05-12T11:50:31.752Z,14.09
2023-05-12T11:52:58.340Z,14.05
2023-05-12T11:55:25.451Z,13.84
2023-05-12T11:57:58.629Z,13.76
2023-05-12T12:00:30.271Z,13.90
2023-05-12T12:03:26.516Z,13.84
2023-05-12T12:06:03.692Z,14.19
2023-05-12T12:08:30.993Z,14.24
2023-05-12T12:10:57.849Z,14.20
2023-05-12T12:13:26.449Z,14.02
2023-05-12T12:15:53.173Z,14.09
2023-05-12T12:18:19.767Z,14.05
2023-05-12T12:20:49.218Z,14.27
2023-05-12T12:23:15.749Z,14.38
2023-05-12T12:25:43.547Z,14.46
2023-05-12T12:28:10.188Z,14.30
2023-05-12T12:30:36.845Z,14.29
2023-05-12T12:33:03.495Z,14.59
2023-05-12T12:35:30.067Z,14.32
2023-05-12T12:37:56.894Z,14.35
2023-05-12T12:40:23.467Z,14.64
2023-05-12T12:42:50.041Z,14.73
2023-05-12T12:45:19.359Z,15.04
2023-05-12T12:47:46.889Z,15.03
2023-05-12T12:50:13.745Z,15.24
2023-05-12T12:52:40.285Z,15.28
2023-05-12T12:55:07.557Z,15.28
2023-05-12T12:57:34.885Z,15.37
2023-05-12T13:00:01.417Z,15.39
2023-05-12T13:02:28.245Z,15.61
2023-05-12T13:04:54.949Z,15.63
2023-05-12T13:07:21.967Z,15.59
2023-05-12T13:09:48.518Z,15.96
2023-05-12T13:12:15.098Z,15.89
2023-05-12T13:14:41.687Z,15.77
2023-05-12T13:17:08.340Z,15.53
2023-05-12T13:19:37.745Z,15.33
2023-05-12T13:22:04.985Z,15.25
2023-05-12T13:24:31.634Z,15.10
2023-05-12T13:26:58.293Z,15.29
2023-05-12T13:29:24.890Z,15.64
2023-05-12T13:31:51.422Z,15.80
2023-05-12T13:34:17.984Z,15.69
2023-05-12T13:36:44.597Z,16.08
2023-05-12T13:39:11.440Z,16.11
2023-05-12T13:41:38.058Z,15.98
2023-05-12T13:44:04.754Z,15.90
2023-05-12T13:46:31.352Z,16.38
2023-05-12T13:48:58.176Z,16.24
2023-05-12T13:51:25.878Z,16.02
2023-05-12T13:53:52.780Z,16.06
2023-05-12T13:56:19.966Z,16.12
2023-05-12T13:58:46.896Z,16.42
2023-05-12T14:01:13.533Z,16.53
2023-05-12T14:03:40.468Z,16.33
2023-05-12T14:06:07.064Z,16.04
2023-05-12T14:08:33.568Z,16.02
2023-05-12T14:11:00.172Z,15.57
2023-05-12T14:13:27.629Z,15.28
2023-05-12T14:15:54.423Z,15.23
2023-05-12T14:18:21.236Z,15.24
2023-05-12T14:20:48.021Z,15.18
2023-05-12T14:23:14.640Z,15.19
2023-05-12T14:25:41.207Z,15.26
2023-05-12T14:28:08.124Z,15.31
2023-05-12T14:30:35.330Z,15.36
2023-05-12T14:33:02.610Z,15.34
2023-05-12T14:35:29.598Z,14.83
2023-05-12T14:37:57.007Z,14.70
2023-05-12T14:40:23.915Z,14.60
2023-05-12T14:42:50.577Z,14.37
2023-05-12T14:45:17.303Z,14.28
2023-05-12T14:47:43.975Z,14.15
2023-05-12T14:50:11.095Z,13.58
2023-05-12T14:52:40.198Z,13.59
2023-05-12T14:55:13.899Z,13.59
2023-05-12T14:57:44.309Z,13.50
2023-05-12T15:00:12.807Z,13.33
2023-05-12T15:02:40.504Z,13.42
2023-05-12T15:05:08.724Z,13.38
2023-05-12T15:07:35.825Z,13.21
2023-05-12T15:10:03.005Z,13.17
2023-05-12T15:12:29.784Z,13.13
2023-05-12T15:14:56.681Z,13.24
2023-05-12T15:17:23.475Z,13.27
2023-05-12T15:19:50.304Z,13.37
2023-05-12T15:22:16.800Z,13.41
2023-05-12T15:24:43.368Z,13.47
2023-05-12T15:27:09.921Z,13.39
2023-05-12T15:29:40.736Z,13.45
2023-05-12T15:32:07.841Z,13.43
2023-05-12T15:34:35.534Z,13.46
2023-05-12T15:37:02.063Z,13.56
2023-05-12T15:39:28.605Z,13.62
2023-05-12T15:41:55.183Z,13.36
2023-05-12T15:44:21.784Z,13.76
2023-05-12T15:46:48.449Z,13.75
2023-05-12T15:49:15.010Z,14.01
2023-05-12T15:51:41.692Z,13.64
2023-05-12T15:54:09.520Z,13.51
2023-05-12T15:56:36.627Z,13.45
2023-05-12T15:59:05.171Z,13.36
2023-05-12T16:01:32.090Z,13.01
2023-05-12T16:03:59.262Z,13.01
2023-05-12T16:06:26.116Z,12.66
2023-05-12T16:08:53.294Z,12.84
2023-05-12T16:11:20.054Z,12.82
2023-05-12T16:13:46.788Z,12.70
2023-05-12T16:16:13.384Z,12.65
2023-05-12T16:18:40.276Z,12.80
2023-05-12T16:21:07.198Z,12.74
2023-05-12T16:23:33.736Z,12.73
2023-05-12T16:26:00.404Z,12.45
2023-05-12T16:28:27.439Z,12.55
2023-05-12T16:30:53.938Z,12.77
2023-05-12T16:33:20.508Z,12.99
2023-05-12T16:35:47.098Z,13.23
2023-05-12T16:38:13.737Z,13.43
2023-05-12T16:40:40.299Z,13.41
2023-05-12T16:43:06.844Z,13.57
2023-05-12T16:45:33.572Z,13.48
2023-05-12T16:48:00.416Z,13.58
2023-05-12T16:50:26.973Z,14.12
2023-05-12T16:52:53.745Z,14.43
2023-05-12T16:55:20.861Z,15.86
2023-05-12T16:57:47.617Z,15.56
2023-05-12T17:00:14.890Z,15.43
2023-05-12T17:02:41.667Z,16.86
2023-05-12T17:05:08.451Z,17.08
2023-05-12T17:07:37.939Z,16.76
2023-05-12T17:10:04.969Z,16.15
2023-05-12T17:12:32.194Z,15.48
2023-05-12T17:15:07.060Z,15.05
2023-05-12T17:17:35.258Z,14.90
2023-05-12T17:20:02.597Z,14.54
2023-05-12T17:22:29.690Z,14.39
2023-05-12T17:24:56.738Z,14.83
2023-05-12T17:27:23.469Z,14.91
2023-05-12T17:29:50.055Z,16.72
2023-05-12T17:32:17.087Z,16.25
2023-05-12T17:34:43.623Z,16.28
2023-05-12T17:37:10.189Z,15.28
2023-05-12T17:39:40.416Z,15.89
2023-05-12T17:42:07.349Z,16.17
2023-05-12T17:44:33.886Z,15.72
2023-05-12T17:47:00.727Z,16.29
2023-05-12T17:49:27.349Z,16.30
2023-05-12T17:51:54.969Z,15.27
2023-05-12T17:54:21.714Z,14.71
2023-05-12T17:56:48.808Z,14.36
2023-05-12T17:59:15.408Z,14.35
2023-05-12T18:01:42.004Z,13.82
2023-05-12T18:04:08.591Z,13.72
2023-05-12T18:06:35.557Z,13.80
2023-05-12T18:09:03.348Z,13.64
2023-05-12T18:11:29.938Z,13.49
2023-05-12T18:13:56.642Z,13.35
2023-05-12T18:16:29.151Z,13.51
2023-05-12T18:18:56.319Z,13.29
2023-05-12T18:21:22.909Z,13.39
2023-05-12T18:23:49.472Z,13.46
2023-05-12T18:26:16.040Z,13.23
2023-05-12T18:28:42.620Z,13.02
2023-05-12T18:31:15.967Z,13.29
2023-05-12T18:33:46.892Z,12.99
2023-05-12T18:36:13.544Z,13.01
2023-05-12T18:38:40.155Z,13.09
2023-05-12T18:41:07.464Z,12.97
2023-05-12T18:43:37.062Z,12.85
2023-05-12T18:46:04.478Z,12.78
2023-05-12T18:48:31.220Z,12.71
2023-05-12T18:50:58.147Z,12.74
2023-05-12T18:53:24.813Z,12.58
2023-05-12T18:55:51.654Z,12.85
2023-05-12T18:58:18.249Z,13.03
2023-05-12T19:00:45.379Z,12.73
2023-05-12T19:03:11.964Z,12.39
2023-05-12T19:05:43.216Z,12.17
2023-05-12T19:08:10.843Z,11.68
2023-05-12T19:10:39.983Z,11.21
2023-05-12T19:13:07.133Z,10.90
2023-05-12T19:15:33.800Z,10.70
2023-05-12T19:18:00.477Z,13.12
2023-05-12T19:20:28.182Z,11.51
2023-05-12T19:22:54.973Z,11.39
2023-05-12T19:25:22.003Z,11.32
2023-05-12T19:27:48.820Z,11.34
2023-05-12T19:30:15.534Z,11.25
2023-05-12T19:32:42.739Z,11.35
2023-05-12T19:35:11.055Z,11.15
2023-05-12T19:37:38.434Z,11.24
2023-05-12T19:40:05.606Z,11.47
2023-05-12T19:42:32.710Z,11.54
2023-05-12T19:45:00.560Z,11.29
2023-05-12T19:47:27.252Z,11.21
2023-05-12T19:49:54.348Z,11.14
2023-05-12T19:52:22.027Z,11.09
2023-05-12T19:54:48.602Z,11.24
2023-05-12T19:57:15.150Z,11.26
2023-05-12T19:59:41.669Z,11.28
2023-05-12T20:02:12.874Z,11.29
2023-05-12T20:04:40.151Z,11.32
2023-05-12T20:07:06.694Z,11.27
2023-05-12T20:09:33.233Z,11.34
2023-05-12T20:11:59.768Z,11.27
2023-05-12T20:14:26.439Z,11.18
2023-05-12T20:16:53.113Z,11.16
2023-05-12T20:19:19.640Z,11.24
2023-05-12T20:21:46.379Z,11.16
2023-05-12T20:24:12.960Z,11.09
2023-05-12T20:26:39.504Z,11.11
2023-05-12T20:29:06.106Z,11.13
2023-05-12T20:31:32.751Z,11.18
2023-05-12T20:33:59.303Z,11.01
2023-05-12T20:36:25.958Z,10.99
2023-05-12T20:38:52.543Z,11.02
2023-05-12T20:41:19.487Z,10.91
2023-05-12T20:43:46.069Z,11.12
2023-05-12T20:46:13.506Z,11.10
2023-05-12T20:48:40.072Z,11.23
2023-05-12T20:51:11.538Z,11.00
2023-05-12T20:53:38.200Z,10.98
2023-05-12T20:56:04.893Z,11.05
2023-05-12T20:58:31.444Z,11.00
2023-05-12T21:00:59.076Z,11.07
2023-05-12T21:03:26.683Z,10.98
2023-05-12T21:05:53.228Z,10.96
2023-05-12T21:08:19.774Z,10.84
2023-05-12T21:10:47.036Z,10.82
2023-05-12T21:13:14.728Z,10.84
2023-05-12T21:15:41.306Z,10.74
2023-05-12T21:18:09.017Z,10.85
2023-05-12T21:20:35.702Z,10.78
2023-05-12T21:23:02.414Z,10.80
2023-05-12T21:25:29.077Z,10.84
2023-05-12T21:27:55.887Z,10.89
2023-05-12T21:30:22.837Z,10.82
2023-05-12T21:32:49.719Z,10.85
2023-05-12T21:35:16.825Z,10.85
2023-05-12T21:37:43.477Z,10.87
2023-05-12T21:40:10.308Z,10.87
2023-05-12T21:42:36.997Z,10.79
2023-05-12T21:45:03.866Z,10.80
2023-05-12T21:47:30.423Z,10.75
2023-05-12T21:49:57.031Z,10.63
2023-05-12T21:52:23.743Z,10.67
2023-05-12T21:54:50.307Z,10.81
2023-05-12T21:57:17.655Z,10.71
2023-05-12T21:59:44.563Z,10.82
2023-05-12T22:02:11.370Z,10.62
2023-05-12T22:04:37.991Z,10.70
2023-05-12T22:07:04.762Z,10.64
2023-05-12T22:09:31.528Z,10.50
2023-05-12T22:11:58.084Z,10.61
2023-05-12T22:14:24.859Z,10.62
2023-05-12T22:16:51.480Z,10.55
2023-05-12T22:19:18.863Z,10.63
2023-05-12T22:21:45.736Z,10.58
2023-05-12T22:24:12.324Z,10.59
2023-05-12T22:26:38.902Z,10.66
2023-05-12T22:29:05.456Z,10.70
2023-05-12T22:31:32.106Z,10.71
2023-05-12T22:33:58.665Z,10.70
2023-05-12T22:36:25.365Z,10.72
2023-05-12T22:38:51.939Z,10.79
2023-05-12T22:41:19.553Z,10.69
2023-05-12T22:43:46.260Z,10.63
2023-05-12T22:46:12.829Z,10.75
2023-05-12T22:48:39.793Z,10.79
2023-05-12T22:51:06.691Z,10.79
2023-05-12T22:53:35.873Z,10.77
2023-05-12T22:56:03.360Z,10.91
2023-05-12T22:58:30.076Z,10.81
2023-05-12T23:00:56.750Z,10.84
2023-05-12T23:03:23.364Z,10.79
2023-05-12T23:05:50.270Z,10.85
2023-05-12T23:08:16.837Z,10.83
2023-05-12T23:10:43.349Z,10.86
2023-05-12T23:13:09.894Z,10.79
2023-05-12T23:15:36.484Z,10.95
2023-05-12T23:18:03.087Z,10.89
2023-05-12T23:20:29.693Z,10.92
2023-05-12T23:22:56.431Z,10.81
2023-05-12T23:25:23.337Z,10.83
2023-05-12T23:27:49.917Z,10.78
2023-05-12T23:30:16.700Z,10.83
2023-05-12T23:32:43.327Z,10.82
2023-05-12T23:35:10.089Z,10.77
2023-05-12T23:37:36.660Z,10.79
2023-05-12T23:40:04.088Z,10.72
2023-05-12T23:42:30.700Z,10.82
2023-05-12T23:44:57.278Z,10.84
2023-05-12T23:47:23.891Z,10.89
2023-05-12T23:49:51.671Z,10.79
2023-05-12T23:52:18.262Z,10.76
2023-05-12T23:54:44.797Z,10.80
2023-05-12T23:57:11.364Z,10.84
2023-05-12T23:59:37.890Z,10.79
